Login to view products.  
Wednesday, December 13, 2017 (12:51 UTC)
Fujairah International Airport
ICAO Code: OMFJ
IATA Code: FJR
  • METAR OMFJ 131200Z 13011KT 8000 NSC 23/09 Q1017 A3003=
  • TAF OMFJ 131100Z 1312/1418 11010KT 8000 NSC BECMG 1314/1316 18004KT BECMG 1321/1323 29006KT TEMPO 1400/1406 VRB03KT 5000 HZ FEW020 BECMG 1406/1408 11010KT SCT030=